Terminal Aerodrome Forecast
Issued by NWS

Home | Current Version | Previous Version | Text Only | Print | Product List | Glossary On
Versions: 1 2 3 4 5 6 7 8 9 10 11 12 13 14 15 16 17 18 19 20 21 22 23 24 25 26 27 28 29 30 31
000
FTUS43 KDDC 182010 AAD
TAFHYS
TAF AMD
KHYS 182010Z 1820/1918 19018KT P6SM BKN070 BKN090
     FM182300 17011KT P6SM BKN090
     FM190400 18007KT P6SM OVC025
     FM190800 18005KT 1/2SM FG OVC005
      TEMPO 1908/1912 1/4SM FG
     FM191500 16005KT 1/2SM FG OVC001
     FM191700 16006KT 3SM BR OVC003=

USA.gov is the U.S. government's official web portal to all federal, state and local government web resources and services.